Time;durP1;ratioP1;P1;durP2;ratioP2;P2;SDS_P1;SDS_P2;PMS_P1;PMS_P2;Temp;Humidity;BMP_temperature;BMP_pressure;BME280_temperature;BME280_humidity;BME280_pressure;Samples;Min_cycle;Max_cycle;Signal;HPM_P1;HPM_P2
2022/09/20 00:01:04;;;;;;;;;;;12.70;99.90;;;;;;5108483;28;19924;-63
2022/09/20 00:03:31;;;;;;;;;;;12.70;99.90;;;;;;5110616;28;19924;-57
2022/09/20 00:06:00;;;;;;;;;;;12.70;99.90;;;;;;5099060;28;19928;-58
2022/09/20 00:08:27;;;;;;;;;;;12.70;99.90;;;;;;5097167;28;19923;-57
2022/09/20 00:11:00;;;;;;;;;;;12.70;99.90;;;;;;5110599;28;19927;-58
2022/09/20 00:13:28;;;;;;;;;;;12.70;99.90;;;;;;5094082;28;19932;-58
2022/09/20 00:15:56;;;;;;;;;;;12.70;99.90;;;;;;5118812;27;19931;-57
2022/09/20 00:18:24;;;;;;;;;;;12.70;99.90;;;;;;5107273;28;20451;-57
2022/09/20 00:20:52;;;;;;;;;;;12.70;99.90;;;;;;5124879;27;20290;-62
2022/09/20 00:23:19;;;;;;;;;;;12.70;99.90;;;;;;5107367;28;19931;-61
2022/09/20 00:25:54;;;;;;;;;;;12.60;99.90;;;;;;5108000;28;19947;-60
2022/09/20 00:28:22;;;;;;;;;;;12.70;99.90;;;;;;5108636;28;19924;-57
2022/09/20 00:30:50;;;;;;;;;;;12.60;99.90;;;;;;5091079;28;19931;-57
2022/09/20 00:33:17;;;;;;;;;;;12.60;99.90;;;;;;5109143;28;19931;-60
2022/09/20 00:35:45;;;;;;;;;;;12.60;99.90;;;;;;5115200;27;19931;-58
2022/09/20 00:38:13;;;;;;;;;;;12.50;99.90;;;;;;5107950;28;19994;-61
2022/09/20 00:40:41;;;;;;;;;;;12.50;99.90;;;;;;5109264;28;19931;-60
2022/09/20 00:43:16;;;;;;;;;;;12.50;99.90;;;;;;5098919;28;19931;-59
2022/09/20 00:45:45;;;;;;;;;;;12.40;99.90;;;;;;5112823;27;19923;-58
2022/09/20 00:48:13;;;;;;;;;;;12.40;99.90;;;;;;5113628;27;19947;-59
2022/09/20 00:50:46;;;;;;;;;;;12.40;99.90;;;;;;5108892;27;19931;-58
2022/09/20 00:53:19;;;;;;;;;;;12.40;99.90;;;;;;5106885;28;19935;-59
2022/09/20 00:55:50;;;;;;;;;;;12.30;99.90;;;;;;5107688;28;19931;-57
2022/09/20 00:58:18;;;;;;;;;;;12.30;99.90;;;;;;5088016;28;19927;-58
2022/09/20 01:00:47;;;;;;;;;;;12.20;99.90;;;;;;5109705;28;19927;-58
2022/09/20 01:03:16;;;;;;;;;;;12.20;99.90;;;;;;5106552;28;19928;-59
2022/09/20 01:05:44;;;;;;;;;;;12.10;99.90;;;;;;5104388;28;20311;-63
2022/09/20 01:08:11;;;;;;;;;;;12.00;99.90;;;;;;5106227;28;19997;-62
2022/09/20 01:10:39;;;;;;;;;;;12.00;99.90;;;;;;5108373;28;19924;-61
2022/09/20 01:13:06;;;;;;;;;;;12.00;99.90;;;;;;5100496;28;20438;-63
2022/09/20 01:15:35;;;;;;;;;;;11.90;99.90;;;;;;5119764;27;19931;-62
2022/09/20 01:18:03;;;;;;;;;;;11.90;99.90;;;;;;5105628;28;20326;-62
2022/09/20 01:20:32;;;;;;;;;;;11.90;99.90;;;;;;5110049;27;19924;-61
2022/09/20 01:23:18;;;;;;;;;;;11.80;99.90;;;;;;5106986;28;19924;-63
2022/09/20 01:26:08;;;;;;;;;;;11.80;99.90;;;;;;5088955;28;19930;-60
2022/09/20 01:28:37;;;;;;;;;;;11.80;99.90;;;;;;5107183;28;20294;-62
2022/09/20 01:31:24;;;;;;;;;;;11.80;99.90;;;;;;5104281;28;19932;-59
2022/09/20 01:33:53;;;;;;;;;;;11.80;99.90;;;;;;5073285;28;20117;-60
2022/09/20 01:36:39;;;;;;;;;;;11.70;99.90;;;;;;5092011;28;19925;-62
2022/09/20 01:39:26;;;;;;;;;;;11.70;99.90;;;;;;5119492;28;19930;-60
2022/09/20 01:41:56;;;;;;;;;;;11.70;99.90;;;;;;5111564;28;19924;-60
2022/09/20 01:44:26;;;;;;;;;;;11.70;99.90;;;;;;5109468;28;20283;-60
2022/09/20 01:47:04;;;;;;;;;;;11.70;99.90;;;;;;5110898;28;19934;-63
2022/09/20 01:49:44;;;;;;;;;;;11.80;99.90;;;;;;5116763;28;20428;-63
2022/09/20 01:52:26;;;;;;;;;;;11.80;99.90;;;;;;5104475;28;19931;-62
2022/09/20 01:54:57;;;;;;;;;;;11.80;99.90;;;;;;5111070;28;19924;-59
2022/09/20 01:57:27;;;;;;;;;;;11.80;99.90;;;;;;5109075;28;20379;-63
2022/09/20 01:59:54;;;;;;;;;;;11.80;99.90;;;;;;5109059;28;19927;-60
2022/09/20 02:02:34;;;;;;;;;;;11.80;99.90;;;;;;5111703;28;19931;-64
2022/09/20 02:05:20;;;;;;;;;;;11.80;99.90;;;;;;5112192;28;19923;-59
2022/09/20 02:07:48;;;;;;;;;;;11.90;99.90;;;;;;5110582;28;20306;-59
2022/09/20 02:10:33;;;;;;;;;;;11.90;99.90;;;;;;5093905;28;19923;-63
2022/09/20 02:13:11;;;;;;;;;;;11.90;99.90;;;;;;5109846;28;19924;-62
2022/09/20 02:15:58;;;;;;;;;;;11.90;99.90;;;;;;5094109;28;19924;-58
2022/09/20 02:18:48;;;;;;;;;;;11.90;99.90;;;;;;5111359;28;19924;-63
2022/09/20 02:21:18;;;;;;;;;;;12.00;99.90;;;;;;5133043;27;19931;-59
2022/09/20 02:24:04;;;;;;;;;;;12.00;99.90;;;;;;5136304;27;19930;-59
2022/09/20 02:26:35;;;;;;;;;;;12.00;99.90;;;;;;5136419;27;19931;-58
2022/09/20 02:29:05;;;;;;;;;;;12.00;99.90;;;;;;5136133;27;19927;-58
2022/09/20 02:31:35;;;;;;;;;;;12.00;99.90;;;;;;5136270;27;19947;-58
2022/09/20 02:34:20;;;;;;;;;;;12.00;99.90;;;;;;5118137;27;20378;-63
2022/09/20 02:37:14;;;;;;;;;;;12.00;99.90;;;;;;5136166;27;19927;-63
2022/09/20 02:39:54;;;;;;;;;;;12.00;99.90;;;;;;5136101;27;19930;-63
2022/09/20 02:42:40;;;;;;;;;;;12.10;99.90;;;;;;5136085;27;19923;-62
2022/09/20 02:45:07;;;;;;;;;;;12.00;99.90;;;;;;5117854;27;20374;-60
2022/09/20 02:47:39;;;;;;;;;;;12.10;99.90;;;;;;5135829;27;19923;-62
2022/09/20 02:50:21;;;;;;;;;;;12.00;99.90;;;;;;5135779;27;20299;-62
2022/09/20 02:53:07;;;;;;;;;;;12.10;99.90;;;;;;5135967;27;19923;-63
2022/09/20 02:55:38;;;;;;;;;;;12.00;99.90;;;;;;5135626;27;19924;-64
2022/09/20 02:58:17;;;;;;;;;;;12.10;99.90;;;;;;5135566;27;19923;-63
2022/09/20 03:00:52;;;;;;;;;;;12.10;99.90;;;;;;5135639;27;19923;-63
2022/09/20 03:03:20;;;;;;;;;;;12.10;99.90;;;;;;5117705;27;19923;-62
2022/09/20 03:05:57;;;;;;;;;;;12.00;99.90;;;;;;5135621;27;19924;-63
2022/09/20 03:08:34;;;;;;;;;;;12.00;99.90;;;;;;5135469;27;19923;-64
2022/09/20 03:11:04;;;;;;;;;;;12.00;99.90;;;;;;5135542;27;19923;-63
2022/09/20 03:13:35;;;;;;;;;;;12.00;99.90;;;;;;5117110;27;19923;-63
2022/09/20 03:16:15;;;;;;;;;;;12.00;99.90;;;;;;5135380;27;19924;-64
2022/09/20 03:18:53;;;;;;;;;;;12.00;99.90;;;;;;5135125;27;19923;-60
2022/09/20 03:21:27;;;;;;;;;;;12.00;99.90;;;;;;5117142;27;19950;-64
2022/09/20 03:24:19;;;;;;;;;;;12.00;99.90;;;;;;5134856;27;21616;-63
2022/09/20 03:26:53;;;;;;;;;;;12.00;99.90;;;;;;5106518;27;19923;-63
2022/09/20 03:29:39;;;;;;;;;;;12.00;99.90;;;;;;5135472;27;20270;-59
2022/09/20 03:32:25;;;;;;;;;;;12.00;99.90;;;;;;5135007;27;19923;-61
2022/09/20 03:34:57;;;;;;;;;;;11.90;99.90;;;;;;5124088;27;19924;-59
2022/09/20 03:37:28;;;;;;;;;;;11.90;99.90;;;;;;5114723;28;19924;-63
2022/09/20 03:40:13;;;;;;;;;;;11.90;99.90;;;;;;5114141;28;19924;-59
2022/09/20 03:42:46;;;;;;;;;;;11.90;99.90;;;;;;5096343;28;19927;-59
2022/09/20 03:45:25;;;;;;;;;;;11.90;99.90;;;;;;5114299;28;19924;-60
2022/09/20 03:48:09;;;;;;;;;;;11.80;99.90;;;;;;5114186;28;19924;-63
2022/09/20 03:50:37;;;;;;;;;;;11.80;99.90;;;;;;5127827;27;19930;-64
2022/09/20 03:53:23;;;;;;;;;;;11.80;99.90;;;;;;5116275;27;19923;-63
2022/09/20 03:56:10;;;;;;;;;;;11.80;99.90;;;;;;5134663;27;19924;-62
2022/09/20 03:58:52;;;;;;;;;;;11.70;99.90;;;;;;5134583;27;19934;-63
2022/09/20 04:01:26;;;;;;;;;;;11.60;99.90;;;;;;5134557;27;19924;-62
2022/09/20 04:03:56;;;;;;;;;;;11.60;99.90;;;;;;5134630;27;19923;-62
2022/09/20 04:06:33;;;;;;;;;;;11.50;99.90;;;;;;5134708;27;20294;-63
2022/09/20 04:09:33;;;;;;;;;;;11.40;99.90;;;;;;5134405;27;19923;-62
2022/09/20 04:12:19;;;;;;;;;;;11.40;99.90;;;;;;5078596;27;19935;-63
2022/09/20 04:14:53;;;;;;;;;;;11.30;99.90;;;;;;5130804;27;19931;-63
2022/09/20 04:17:38;;;;;;;;;;;11.20;99.90;;;;;;5113908;28;19924;-58
2022/09/20 04:20:12;;;;;;;;;;;11.10;99.90;;;;;;5104241;27;19924;-58
2022/09/20 04:22:41;;;;;;;;;;;11.10;99.90;;;;;;5134090;27;19924;-63
2022/09/20 04:25:16;;;;;;;;;;;11.00;99.90;;;;;;5133977;27;20372;-62
2022/09/20 04:27:53;;;;;;;;;;;10.90;99.90;;;;;;5134054;27;20286;-59
2022/09/20 04:30:25;;;;;;;;;;;10.90;99.90;;;;;;5133518;27;20398;-58
2022/09/20 04:32:53;;;;;;;;;;;10.80;99.90;;;;;;5133822;27;19931;-59
2022/09/20 04:38:22;;;;;;;;;;;10.80;99.90;;;;;;5133934;27;19930;-58
2022/09/20 04:41:11;;;;;;;;;;;10.80;99.90;;;;;;5133649;27;19923;-60
2022/09/20 04:43:58;;;;;;;;;;;10.80;99.90;;;;;;5114817;27;19924;-58
2022/09/20 04:46:44;;;;;;;;;;;10.70;99.90;;;;;;5133559;27;19924;-63
2022/09/20 04:49:17;;;;;;;;;;;10.80;99.90;;;;;;5098919;27;20319;-58
2022/09/20 04:51:48;;;;;;;;;;;10.80;99.90;;;;;;5130091;27;19949;-60
2022/09/20 04:54:34;;;;;;;;;;;10.90;99.90;;;;;;5129998;27;19923;-59
2022/09/20 04:57:05;;;;;;;;;;;10.90;99.90;;;;;;5129516;27;19930;-62
2022/09/20 04:59:33;;;;;;;;;;;10.90;99.90;;;;;;5109261;28;20389;-62
2022/09/20 05:02:13;;;;;;;;;;;10.90;99.90;;;;;;5103681;28;20291;-60
2022/09/20 05:04:47;;;;;;;;;;;10.80;99.90;;;;;;5085837;28;19931;-62
2022/09/20 05:07:34;;;;;;;;;;;10.90;99.90;;;;;;5070458;28;19994;-58
2022/09/20 05:10:01;;;;;;;;;;;10.90;99.90;;;;;;5106167;28;19946;-59
2022/09/20 05:12:35;;;;;;;;;;;10.90;99.90;;;;;;5087326;28;20417;-59
2022/09/20 05:15:22;;;;;;;;;;;10.90;99.90;;;;;;5106319;28;20667;-60
2022/09/20 05:17:55;;;;;;;;;;;10.90;99.90;;;;;;5108919;28;20394;-59
2022/09/20 05:20:23;;;;;;;;;;;10.90;99.90;;;;;;5102141;27;19923;-58
2022/09/20 05:22:56;;;;;;;;;;;10.90;99.90;;;;;;5096886;27;20008;-58
2022/09/20 05:25:38;;;;;;;;;;;10.90;99.90;;;;;;5126411;27;19923;-57
2022/09/20 05:28:24;;;;;;;;;;;10.90;99.90;;;;;;5119484;27;19930;-60
2022/09/20 05:30:57;;;;;;;;;;;10.90;99.90;;;;;;5109331;28;19942;-60
2022/09/20 05:33:43;;;;;;;;;;;10.90;99.90;;;;;;5116574;28;19931;-58
2022/09/20 05:36:14;;;;;;;;;;;11.00;99.90;;;;;;5124428;28;19939;-59
2022/09/20 05:38:47;;;;;;;;;;;11.00;99.90;;;;;;5068173;28;19927;-58
2022/09/20 05:41:22;;;;;;;;;;;10.90;99.90;;;;;;5109010;28;19931;-58
2022/09/20 05:43:52;;;;;;;;;;;11.00;99.90;;;;;;5101004;28;20293;-61
2022/09/20 05:46:35;;;;;;;;;;;11.00;99.90;;;;;;5129737;28;19923;-60
2022/09/20 05:49:06;;;;;;;;;;;11.00;99.90;;;;;;5110157;28;19935;-58
2022/09/20 05:51:42;;;;;;;;;;;11.00;99.90;;;;;;5105134;28;20322;-58
2022/09/20 05:54:20;;;;;;;;;;;11.00;99.90;;;;;;5109342;28;19954;-57
2022/09/20 05:56:53;;;;;;;;;;;11.00;99.90;;;;;;5110523;28;19924;-57
2022/09/20 05:59:20;;;;;;;;;;;11.10;99.90;;;;;;5094026;28;19924;-56
2022/09/20 06:02:07;;;;;;;;;;;11.10;99.90;;;;;;5092630;28;20299;-57
2022/09/20 06:04:37;;;;;;;;;;;11.10;99.90;;;;;;5107917;28;20390;-57
2022/09/20 06:07:23;;;;;;;;;;;11.10;99.90;;;;;;5111366;28;19931;-57
2022/09/20 06:09:53;;;;;;;;;;;11.10;99.90;;;;;;5112614;28;19931;-57
2022/09/20 06:12:39;;;;;;;;;;;11.10;99.90;;;;;;5112583;28;19924;-56
2022/09/20 06:15:20;;;;;;;;;;;11.20;99.90;;;;;;5101332;28;19935;-57
2022/09/20 06:18:06;;;;;;;;;;;11.20;99.90;;;;;;5111533;28;20276;-57
2022/09/20 06:20:41;;;;;;;;;;;11.20;99.90;;;;;;5111807;27;19927;-58
2022/09/20 06:23:09;;;;;;;;;;;11.20;99.90;;;;;;5094620;27;19928;-62
2022/09/20 06:25:48;;;;;;;;;;;11.20;99.90;;;;;;5109062;27;20327;-58
2022/09/20 06:28:20;;;;;;;;;;;11.30;99.90;;;;;;5109164;28;20406;-61
2022/09/20 06:30:52;;;;;;;;;;;11.30;99.90;;;;;;5108995;28;19924;-57
2022/09/20 06:33:27;;;;;;;;;;;11.30;99.90;;;;;;5089098;28;20258;-60
2022/09/20 06:42:10;;;;;;;;;;;11.40;99.90;;;;;;5109096;28;19924;-62
2022/09/20 06:44:42;;;;;;;;;;;11.50;99.90;;;;;;5113765;27;19928;-57
2022/09/20 06:47:09;;;;;;;;;;;11.50;99.90;;;;;;5110620;28;19927;-57
2022/09/20 06:49:38;;;;;;;;;;;11.60;99.90;;;;;;5116917;27;19924;-59
2022/09/20 06:52:06;;;;;;;;;;;11.50;99.90;;;;;;5108346;27;19932;-57
2022/09/20 06:54:33;;;;;;;;;;;11.60;99.90;;;;;;5128820;27;20286;-59
2022/09/20 06:57:03;;;;;;;;;;;11.70;99.90;;;;;;5099940;28;19924;-59
2022/09/20 06:59:31;;;;;;;;;;;11.70;99.90;;;;;;5102523;28;19924;-56
2022/09/20 07:01:58;;;;;;;;;;;11.80;99.90;;;;;;5109163;28;20350;-57
2022/09/20 07:04:25;;;;;;;;;;;11.90;99.90;;;;;;5101390;27;20157;-63
2022/09/20 07:07:00;;;;;;;;;;;11.90;99.90;;;;;;5089021;28;19931;-63
2022/09/20 07:09:30;;;;;;;;;;;12.00;99.90;;;;;;5110297;28;19938;-57
2022/09/20 07:11:58;;;;;;;;;;;12.10;99.90;;;;;;5110190;28;19935;-58
2022/09/20 07:14:26;;;;;;;;;;;12.10;99.90;;;;;;5117923;27;19947;-57
2022/09/20 07:16:53;;;;;;;;;;;12.20;99.90;;;;;;5095448;28;20442;-59
2022/09/20 07:19:22;;;;;;;;;;;12.20;99.90;;;;;;5108844;27;19938;-56
2022/09/20 07:21:49;;;;;;;;;;;12.30;99.90;;;;;;5113543;27;19931;-62
2022/09/20 07:24:16;;;;;;;;;;;12.30;99.90;;;;;;5097447;28;19928;-57
2022/09/20 07:27:00;;;;;;;;;;;12.40;99.90;;;;;;5098790;28;19924;-57
2022/09/20 07:29:28;;;;;;;;;;;12.50;99.90;;;;;;5097561;28;19923;-57
2022/09/20 07:31:55;;;;;;;;;;;12.60;99.90;;;;;;5098537;28;19931;-58
2022/09/20 07:34:23;;;;;;;;;;;12.60;99.90;;;;;;5120897;27;20370;-56
2022/09/20 07:36:51;;;;;;;;;;;12.70;99.90;;;;;;5115454;27;19924;-57
2022/09/20 07:39:19;;;;;;;;;;;12.80;99.90;;;;;;5091719;28;19924;-57
2022/09/20 07:41:49;;;;;;;;;;;12.90;99.90;;;;;;5111210;28;20329;-57
2022/09/20 07:44:20;;;;;;;;;;;13.00;99.90;;;;;;5118112;27;19931;-57
2022/09/20 07:46:48;;;;;;;;;;;13.00;99.90;;;;;;5105679;28;19935;-58
2022/09/20 07:49:16;;;;;;;;;;;13.10;99.90;;;;;;5101670;27;19939;-57
2022/09/20 07:51:43;;;;;;;;;;;13.20;99.90;;;;;;5104342;28;20684;-58
2022/09/20 07:54:11;;;;;;;;;;;13.30;99.90;;;;;;5121845;27;19923;-58
2022/09/20 07:56:39;;;;;;;;;;;13.40;99.90;;;;;;5112792;27;19930;-57
2022/09/20 07:59:06;;;;;;;;;;;13.50;99.90;;;;;;5092555;28;19930;-57
2022/09/20 08:01:33;;;;;;;;;;;13.50;99.90;;;;;;5108225;28;19935;-56
2022/09/20 08:04:01;;;;;;;;;;;13.60;99.90;;;;;;5113630;27;19923;-57
2022/09/20 08:06:28;;;;;;;;;;;13.70;99.90;;;;;;5106743;28;19928;-56
2022/09/20 08:08:56;;;;;;;;;;;13.80;99.90;;;;;;5106187;28;20309;-57
2022/09/20 08:11:24;;;;;;;;;;;13.80;99.90;;;;;;5109260;28;19927;-57
2022/09/20 08:13:55;;;;;;;;;;;13.90;99.90;;;;;;5110042;28;20536;-56
2022/09/20 08:16:36;;;;;;;;;;;14.00;99.90;;;;;;5110378;28;19947;-58
2022/09/20 08:19:03;;;;;;;;;;;14.20;99.90;;;;;;5110504;27;19923;-60
2022/09/20 08:21:32;;;;;;;;;;;14.20;99.90;;;;;;5126414;27;19934;-57
2022/09/20 08:23:59;;;;;;;;;;;14.30;99.90;;;;;;5108642;27;19923;-57
2022/09/20 08:26:28;;;;;;;;;;;14.40;99.90;;;;;;5109215;28;20295;-57
2022/09/20 08:28:56;;;;;;;;;;;14.40;99.90;;;;;;5109924;28;19930;-57
2022/09/20 08:31:25;;;;;;;;;;;14.50;99.90;;;;;;5110031;28;19931;-57
2022/09/20 08:33:53;;;;;;;;;;;14.60;99.90;;;;;;5091615;28;20399;-59
2022/09/20 08:36:21;;;;;;;;;;;14.60;99.90;;;;;;5108817;28;20290;-57
2022/09/20 08:38:49;;;;;;;;;;;14.70;99.90;;;;;;5104195;28;19931;-56
2022/09/20 08:41:43;;;;;;;;;;;14.70;99.90;;;;;;5110644;28;19924;-63
2022/09/20 08:44:31;;;;;;;;;;;14.80;99.90;;;;;;5109726;28;19931;-57
2022/09/20 08:47:16;;;;;;;;;;;14.90;99.90;;;;;;5088616;28;20398;-58
2022/09/20 08:49:44;;;;;;;;;;;14.90;99.90;;;;;;5098636;27;19927;-60
2022/09/20 08:52:18;;;;;;;;;;;15.00;99.90;;;;;;5118473;27;19924;-62
2022/09/20 08:54:46;;;;;;;;;;;15.00;99.90;;;;;;5105304;28;19931;-59
2022/09/20 08:57:14;;;;;;;;;;;15.10;99.90;;;;;;5104712;28;19942;-61
2022/09/20 08:59:42;;;;;;;;;;;15.10;99.90;;;;;;5105926;28;19927;-61
2022/09/20 09:02:17;;;;;;;;;;;15.20;99.90;;;;;;5105692;28;19939;-60
2022/09/20 09:04:45;;;;;;;;;;;15.30;99.90;;;;;;5106867;28;19935;-64
2022/09/20 09:07:13;;;;;;;;;;;15.30;99.90;;;;;;5107963;28;20504;-64
2022/09/20 09:09:42;;;;;;;;;;;15.30;99.90;;;;;;5109338;28;19924;-65
2022/09/20 09:12:17;;;;;;;;;;;15.40;99.90;;;;;;5109619;28;20267;-66
2022/09/20 09:14:48;;;;;;;;;;;15.50;99.90;;;;;;5126831;27;20298;-63
2022/09/20 09:17:19;;;;;;;;;;;15.60;99.90;;;;;;5113426;27;19924;-57
2022/09/20 09:19:48;;;;;;;;;;;15.70;99.90;;;;;;5115627;27;19946;-57
2022/09/20 09:22:25;;;;;;;;;;;15.80;99.90;;;;;;5102758;28;20394;-59
2022/09/20 09:25:05;;;;;;;;;;;15.80;99.90;;;;;;5114707;27;19928;-58
2022/09/20 09:27:34;;;;;;;;;;;15.90;99.90;;;;;;5108962;28;19934;-57
2022/09/20 09:30:01;;;;;;;;;;;16.00;99.90;;;;;;5109025;28;20366;-57
2022/09/20 09:32:31;;;;;;;;;;;16.00;99.90;;;;;;5095726;28;19935;-59
2022/09/20 09:35:25;;;;;;;;;;;16.00;99.90;;;;;;5114213;28;19931;-63
2022/09/20 09:37:54;;;;;;;;;;;16.10;99.90;;;;;;5101600;28;19931;-63
2022/09/20 09:40:22;;;;;;;;;;;16.10;99.90;;;;;;5109057;28;19924;-62
2022/09/20 09:42:51;;;;;;;;;;;16.10;99.90;;;;;;5107631;28;19931;-62
2022/09/20 09:45:31;;;;;;;;;;;16.10;99.90;;;;;;5109111;28;19935;-63
2022/09/20 09:48:00;;;;;;;;;;;16.20;99.90;;;;;;5108781;28;19959;-58
2022/09/20 09:50:29;;;;;;;;;;;16.20;99.90;;;;;;5118998;27;19924;-62
2022/09/20 09:52:58;;;;;;;;;;;16.20;99.90;;;;;;5070623;28;19924;-62
2022/09/20 09:55:36;;;;;;;;;;;16.20;99.90;;;;;;5108917;28;19924;-61
2022/09/20 09:58:24;;;;;;;;;;;16.30;99.90;;;;;;5107747;28;19931;-61
2022/09/20 10:00:53;;;;;;;;;;;16.30;99.90;;;;;;5067477;28;19923;-59
2022/09/20 10:03:36;;;;;;;;;;;16.30;99.90;;;;;;5113998;28;19927;-62
2022/09/20 10:06:12;;;;;;;;;;;16.40;99.90;;;;;;5090131;28;20394;-57
2022/09/20 10:08:50;;;;;;;;;;;16.40;99.90;;;;;;5107914;28;19928;-58
2022/09/20 10:11:26;;;;;;;;;;;16.50;99.90;;;;;;5106766;28;19924;-59
2022/09/20 10:14:12;;;;;;;;;;;16.60;99.90;;;;;;5106842;28;20497;-63
2022/09/20 10:16:49;;;;;;;;;;;16.60;99.90;;;;;;5090446;28;19924;-63
2022/09/20 10:19:23;;;;;;;;;;;16.60;99.90;;;;;;5089215;28;19931;-63
2022/09/20 10:22:03;;;;;;;;;;;16.60;99.90;;;;;;5107422;28;20290;-62
2022/09/20 10:24:39;;;;;;;;;;;16.60;99.90;;;;;;5102288;28;19923;-60
2022/09/20 10:27:15;;;;;;;;;;;16.60;99.90;;;;;;5092323;28;20307;-61
2022/09/20 10:29:51;;;;;;;;;;;16.60;99.90;;;;;;5087367;28;20524;-60
2022/09/20 10:32:38;;;;;;;;;;;16.60;99.90;;;;;;5087566;28;20442;-60
2022/09/20 10:35:26;;;;;;;;;;;16.60;99.90;;;;;;5092464;28;19928;-61
2022/09/20 10:38:18;;;;;;;;;;;16.60;99.90;;;;;;5084774;28;19950;-63
2022/09/20 10:43:50;;;;;;;;;;;16.70;99.90;;;;;;5096441;28;20291;-62
2022/09/20 10:46:22;;;;;;;;;;;16.80;99.90;;;;;;5112032;28;19924;-61
2022/09/20 10:49:18;;;;;;;;;;;16.90;99.90;;;;;;5081274;28;19932;-62
2022/09/20 10:51:54;;;;;;;;;;;17.00;99.90;;;;;;5071404;28;19936;-60
2022/09/20 10:54:22;;;;;;;;;;;17.10;99.90;;;;;;5084470;28;19935;-58
2022/09/20 10:56:51;;;;;;;;;;;17.20;99.90;;;;;;5088686;28;19933;-58
2022/09/20 10:59:26;;;;;;;;;;;17.30;99.90;;;;;;5077697;28;19936;-58
2022/09/20 11:02:06;;;;;;;;;;;17.40;99.90;;;;;;5073903;28;19924;-58
2022/09/20 11:04:45;;;;;;;;;;;17.50;99.90;;;;;;5096390;28;19940;-57
2022/09/20 11:07:22;;;;;;;;;;;17.60;99.90;;;;;;5091159;28;19924;-58
2022/09/20 11:10:01;;;;;;;;;;;17.70;99.90;;;;;;5090151;28;19928;-62
2022/09/20 11:12:38;;;;;;;;;;;17.80;99.90;;;;;;5091165;28;19924;-61
2022/09/20 11:15:11;;;;;;;;;;;17.90;99.90;;;;;;5072528;28;19928;-61
2022/09/20 11:17:41;;;;;;;;;;;17.90;99.90;;;;;;5075694;28;19924;-63
2022/09/20 11:20:21;;;;;;;;;;;18.00;99.90;;;;;;5088715;28;19924;-63
2022/09/20 11:22:57;;;;;;;;;;;18.00;99.90;;;;;;5090032;28;19994;-64
2022/09/20 11:25:43;;;;;;;;;;;18.10;99.90;;;;;;5111630;28;19928;-62
2022/09/20 11:28:29;;;;;;;;;;;18.10;99.90;;;;;;5100158;28;19924;-64
2022/09/20 11:31:05;;;;;;;;;;;18.20;99.90;;;;;;5070726;28;20329;-63
2022/09/20 11:33:36;;;;;;;;;;;18.30;99.90;;;;;;5081550;28;19931;-64
2022/09/20 11:36:13;;;;;;;;;;;18.30;99.90;;;;;;5090674;28;19955;-64
2022/09/20 11:39:02;;;;;;;;;;;18.40;99.90;;;;;;5089703;28;19924;-59
2022/09/20 11:41:30;;;;;;;;;;;18.40;99.90;;;;;;5073366;28;19947;-63
2022/09/20 11:44:05;;;;;;;;;;;18.50;99.90;;;;;;5084573;28;20425;-59
2022/09/20 11:46:41;;;;;;;;;;;18.50;99.90;;;;;;5081629;28;19924;-57
2022/09/20 11:49:16;;;;;;;;;;;18.60;99.90;;;;;;5091308;28;19924;-60
2022/09/20 11:51:45;;;;;;;;;;;18.60;99.90;;;;;;5110722;28;19930;-64
2022/09/20 11:54:14;;;;;;;;;;;18.70;99.90;;;;;;5089200;28;19924;-58
2022/09/20 11:56:48;;;;;;;;;;;18.70;99.90;;;;;;5088767;28;19983;-59
2022/09/20 11:59:28;;;;;;;;;;;18.90;99.90;;;;;;5078435;28;20015;-64
2022/09/20 12:01:59;;;;;;;;;;;18.90;99.90;;;;;;5070240;28;19928;-63
2022/09/20 12:04:28;;;;;;;;;;;19.00;99.90;;;;;;5082366;28;19932;-63
2022/09/20 12:07:06;;;;;;;;;;;19.10;99.90;;;;;;5089146;28;19931;-63
2022/09/20 12:09:42;;;;;;;;;;;19.20;99.90;;;;;;5070681;28;19925;-64
2022/09/20 12:12:31;;;;;;;;;;;19.30;99.90;;;;;;5070991;28;19932;-64
2022/09/20 12:15:00;;;;;;;;;;;19.40;99.90;;;;;;5081576;28;19925;-64
2022/09/20 12:17:46;;;;;;;;;;;19.60;99.90;;;;;;5085709;28;19932;-61
2022/09/20 12:20:31;;;;;;;;;;;19.80;99.90;;;;;;5119379;27;19946;-59
2022/09/20 12:23:20;;;;;;;;;;;20.00;99.90;;;;;;5095227;27;19932;-62
2022/09/20 12:26:01;;;;;;;;;;;20.20;99.90;;;;;;5065478;28;19935;-58
2022/09/20 12:28:35;;;;;;;;;;;20.30;99.90;;;;;;5086834;28;19924;-61
2022/09/20 12:31:20;;;;;;;;;;;20.40;99.90;;;;;;5109820;28;19923;-61
2022/09/20 12:33:54;;;;;;;;;;;20.50;99.90;;;;;;5090828;28;19924;-59
2022/09/20 12:36:22;;;;;;;;;;;20.60;99.90;;;;;;5091935;28;20398;-61
2022/09/20 12:39:09;;;;;;;;;;;20.70;99.90;;;;;;5089787;28;19924;-58
2022/09/20 12:41:45;;;;;;;;;;;20.80;99.90;;;;;;5109734;28;19923;-61
2022/09/20 12:44:38;;;;;;;;;;;20.80;99.90;;;;;;5109180;27;19935;-59
2022/09/20 12:47:07;;;;;;;;;;;20.60;99.90;;;;;;5059029;28;19935;-62
2022/09/20 12:52:52;;;;;;;;;;;20.60;99.90;;;;;;5115080;27;19924;-65
2022/09/20 12:55:26;;;;;;;;;;;20.60;99.90;;;;;;5099719;28;19923;-65
2022/09/20 12:57:57;;;;;;;;;;;20.50;99.90;;;;;;5109700;28;19924;-64
2022/09/20 13:00:30;;;;;;;;;;;20.40;99.90;;;;;;5076479;28;19931;-64
2022/09/20 13:02:59;;;;;;;;;;;20.40;99.90;;;;;;5089851;28;19932;-65
2022/09/20 13:05:30;;;;;;;;;;;20.30;99.90;;;;;;5090012;28;19930;-65
2022/09/20 13:08:01;;;;;;;;;;;20.20;99.90;;;;;;5108717;28;19923;-63
2022/09/20 13:10:31;;;;;;;;;;;20.20;99.90;;;;;;5107991;28;19938;-61
2022/09/20 13:13:01;;;;;;;;;;;20.20;99.90;;;;;;5109247;28;19923;-64
2022/09/20 13:15:28;;;;;;;;;;;20.20;99.90;;;;;;5107057;28;19931;-65
2022/09/20 13:17:58;;;;;;;;;;;20.20;99.90;;;;;;5107976;28;20406;-65
2022/09/20 13:20:33;;;;;;;;;;;20.20;99.90;;;;;;5121264;27;19935;-63
2022/09/20 13:23:02;;;;;;;;;;;20.40;99.90;;;;;;5111218;27;19923;-65
2022/09/20 13:25:31;;;;;;;;;;;20.90;99.90;;;;;;5111261;27;19924;-64
2022/09/20 13:27:58;;;;;;;;;;;21.70;99.90;;;;;;5122307;27;19924;-64
2022/09/20 13:30:31;;;;;;;;;;;22.50;99.40;;;;;;5107885;28;19935;-62
2022/09/20 13:33:17;;;;;;;;;;;23.20;98.10;;;;;;5108790;28;19923;-61
2022/09/20 13:35:47;;;;;;;;;;;23.90;95.90;;;;;;5120684;27;19961;-60
2022/09/20 13:38:21;;;;;;;;;;;24.60;94.20;;;;;;5107221;28;19928;-59
2022/09/20 13:40:49;;;;;;;;;;;25.10;93.20;;;;;;5088095;28;20489;-60
2022/09/20 13:43:16;;;;;;;;;;;25.60;90.20;;;;;;5107171;28;19928;-63
2022/09/20 13:45:52;;;;;;;;;;;26.00;87.50;;;;;;5093168;28;19924;-60
2022/09/20 13:48:22;;;;;;;;;;;26.30;86.50;;;;;;5080315;28;20278;-59
2022/09/20 13:50:50;;;;;;;;;;;26.20;84.90;;;;;;5112403;28;19924;-59
2022/09/20 13:53:21;;;;;;;;;;;25.80;82.20;;;;;;5111369;28;19924;-65
2022/09/20 13:56:22;;;;;;;;;;;25.20;82.10;;;;;;5128946;28;20342;-63
2022/09/20 13:58:50;;;;;;;;;;;24.60;83.90;;;;;;5111606;28;19931;-59
2022/09/20 14:01:22;;;;;;;;;;;24.00;85.20;;;;;;5069110;28;19935;-62
2022/09/20 14:03:51;;;;;;;;;;;23.50;85.50;;;;;;5087032;28;20390;-60
2022/09/20 14:06:25;;;;;;;;;;;23.10;86.20;;;;;;5128939;28;19923;-62
2022/09/20 14:08:53;;;;;;;;;;;22.70;87.40;;;;;;5109569;28;19927;-60
2022/09/20 14:11:32;;;;;;;;;;;22.40;88.10;;;;;;5105774;28;19923;-61
2022/09/20 14:14:01;;;;;;;;;;;22.10;88.40;;;;;;5116989;28;19950;-62
2022/09/20 14:16:30;;;;;;;;;;;21.70;89.90;;;;;;5099677;28;19931;-61
2022/09/20 14:18:58;;;;;;;;;;;21.40;91.10;;;;;;5112293;28;20460;-59
2022/09/20 14:21:27;;;;;;;;;;;21.00;91.40;;;;;;5114645;27;19931;-59
2022/09/20 14:24:01;;;;;;;;;;;20.80;91.80;;;;;;5126210;27;19946;-59
2022/09/20 14:26:32;;;;;;;;;;;20.60;92.30;;;;;;5112610;28;19928;-60
2022/09/20 14:29:18;;;;;;;;;;;20.40;92.70;;;;;;5128022;27;19934;-60
2022/09/20 14:31:46;;;;;;;;;;;20.20;92.90;;;;;;5102114;28;19928;-59
2022/09/20 14:34:14;;;;;;;;;;;20.00;93.40;;;;;;5113789;27;19931;-62
2022/09/20 14:36:41;;;;;;;;;;;19.90;93.80;;;;;;5110495;28;19924;-62
2022/09/20 14:39:15;;;;;;;;;;;19.80;94.10;;;;;;5109669;28;19923;-61
2022/09/20 14:41:45;;;;;;;;;;;19.80;94.40;;;;;;5112136;28;19938;-59
2022/09/20 14:44:22;;;;;;;;;;;19.70;94.60;;;;;;5105885;28;19939;-58
2022/09/20 14:46:49;;;;;;;;;;;19.70;94.90;;;;;;5091734;28;19932;-61
2022/09/20 14:49:18;;;;;;;;;;;19.70;95.20;;;;;;5079748;27;19924;-59
2022/09/20 14:51:45;;;;;;;;;;;19.60;95.30;;;;;;5121259;27;20385;-59
2022/09/20 14:54:13;;;;;;;;;;;19.60;95.30;;;;;;5096862;28;19931;-59
2022/09/20 14:56:46;;;;;;;;;;;19.50;95.50;;;;;;5095500;28;19930;-61
2022/09/20 14:59:14;;;;;;;;;;;19.50;95.60;;;;;;5105525;28;19939;-61
2022/09/20 15:01:43;;;;;;;;;;;19.60;95.80;;;;;;5086421;28;19936;-58
2022/09/20 15:04:19;;;;;;;;;;;19.60;96.10;;;;;;5114073;27;19924;-58
2022/09/20 15:06:47;;;;;;;;;;;19.70;96.40;;;;;;5114375;27;19927;-58
2022/09/20 15:09:17;;;;;;;;;;;19.90;96.10;;;;;;5110057;28;19928;-59
2022/09/20 15:11:44;;;;;;;;;;;20.00;96.20;;;;;;5108830;28;19997;-59